createdAt,value
2017-12-21T00:00:16.188Z,1027.48
2017-12-21T00:01:16.156Z,1027.48
2017-12-21T00:02:16.135Z,1027.47
2017-12-21T00:03:16.116Z,1027.48
2017-12-21T00:04:16.094Z,1027.51
2017-12-21T00:05:16.080Z,1027.48
2017-12-21T00:06:16.058Z,1027.48
2017-12-21T00:07:16.038Z,1027.52
2017-12-21T00:08:16.018Z,1027.55
2017-12-21T00:09:16.001Z,1027.55
2017-12-21T00:10:15.978Z,1027.59
2017-12-21T00:11:15.958Z,1027.55
2017-12-21T00:12:15.942Z,1027.51
2017-12-21T00:13:15.919Z,1027.48
2017-12-21T00:14:15.900Z,1027.47
2017-12-21T00:15:15.879Z,1027.42
2017-12-21T00:16:15.858Z,1027.41
2017-12-21T00:17:15.839Z,1027.42
2017-12-21T00:18:15.818Z,1027.44
2017-12-21T00:19:15.807Z,1027.42
2017-12-21T00:20:15.778Z,1027.41
2017-12-21T00:21:15.762Z,1027.45
2017-12-21T00:22:15.744Z,1027.40
2017-12-21T00:23:15.719Z,1027.44
2017-12-21T00:24:15.706Z,1027.37
2017-12-21T00:25:15.677Z,1027.42
2017-12-21T00:26:15.660Z,1027.36
2017-12-21T00:27:15.646Z,1027.35
2017-12-21T00:28:15.616Z,1027.36
2017-12-21T00:29:15.605Z,1027.31
2017-12-21T00:30:15.589Z,1027.33
2017-12-21T00:31:15.562Z,1027.35
2017-12-21T00:32:15.541Z,1027.32
2017-12-21T00:33:15.519Z,1027.29
2017-12-21T00:34:15.504Z,1027.27
2017-12-21T00:35:15.486Z,1027.27
2017-12-21T00:36:15.468Z,1027.27
2017-12-21T00:37:15.444Z,1027.28
2017-12-21T00:38:15.484Z,1027.31
2017-12-21T00:39:15.411Z,1027.30
2017-12-21T00:40:15.382Z,1027.32
2017-12-21T00:41:15.363Z,1027.31
2017-12-21T00:42:15.350Z,1027.31
2017-12-21T00:43:15.325Z,1027.33
2017-12-21T00:44:15.306Z,1027.34
2017-12-21T00:45:15.285Z,1027.37
2017-12-21T00:46:15.261Z,1027.34
2017-12-21T00:47:15.245Z,1027.30
2017-12-21T00:48:15.229Z,1027.34
2017-12-21T00:49:15.204Z,1027.35
2017-12-21T00:50:15.182Z,1027.30
2017-12-21T00:51:15.167Z,1027.36
2017-12-21T00:52:15.150Z,1027.36
2017-12-21T00:53:15.128Z,1027.33
2017-12-21T00:54:15.112Z,1027.32
2017-12-21T00:55:15.089Z,1027.32
2017-12-21T00:56:15.064Z,1027.29
2017-12-21T00:57:15.049Z,1027.26
2017-12-21T00:58:15.029Z,1027.31
2017-12-21T00:59:15.008Z,1027.28
2017-12-21T01:00:14.986Z,1027.29
2017-12-21T01:01:14.968Z,1027.30
2017-12-21T01:02:14.945Z,1027.32
2017-12-21T01:03:14.927Z,1027.33
2017-12-21T01:04:14.908Z,1027.30
2017-12-21T01:05:14.892Z,1027.26
2017-12-21T01:06:14.867Z,1027.23
2017-12-21T01:07:14.851Z,1027.21
2017-12-21T01:08:14.825Z,1027.22
2017-12-21T01:09:14.813Z,1027.17
2017-12-21T01:10:14.787Z,1027.12
2017-12-21T01:11:14.772Z,1027.11
2017-12-21T01:12:14.746Z,1027.07
2017-12-21T01:13:14.729Z,1027.07
2017-12-21T01:14:14.719Z,1027.15
2017-12-21T01:15:14.690Z,1027.21
2017-12-21T01:16:14.668Z,1027.24
2017-12-21T01:17:14.654Z,1027.24
2017-12-21T01:18:14.629Z,1027.21
2017-12-21T01:19:14.609Z,1027.21
2017-12-21T01:20:14.590Z,1027.23
2017-12-21T01:21:14.572Z,1027.18
2017-12-21T01:22:14.554Z,1027.16
2017-12-21T01:23:14.531Z,1027.19
2017-12-21T01:24:14.514Z,1027.19
2017-12-21T01:25:14.495Z,1027.18
2017-12-21T01:26:14.469Z,1027.22
2017-12-21T01:27:14.458Z,1027.20
2017-12-21T01:28:14.441Z,1027.19
2017-12-21T01:29:14.415Z,1027.19
2017-12-21T01:30:14.392Z,1027.23
2017-12-21T01:31:14.370Z,1027.22
2017-12-21T01:32:14.350Z,1027.17
2017-12-21T01:33:14.339Z,1027.16
2017-12-21T01:34:14.312Z,1027.15
2017-12-21T01:35:14.294Z,1027.11
2017-12-21T01:36:14.281Z,1027.14
2017-12-21T01:37:14.302Z,1027.16
2017-12-21T01:38:14.238Z,1027.12
2017-12-21T01:39:14.219Z,1027.10
2017-12-21T01:40:14.194Z,1027.09
2017-12-21T01:41:14.185Z,1027.13
2017-12-21T01:42:14.157Z,1027.13
2017-12-21T01:43:14.135Z,1027.14
2017-12-21T01:44:14.119Z,1027.12
2017-12-21T01:45:14.098Z,1027.15
2017-12-21T01:46:14.078Z,1027.13
2017-12-21T01:47:14.058Z,1027.10
2017-12-21T01:48:14.039Z,1027.11
2017-12-21T01:49:14.018Z,1027.10
2017-12-21T01:50:13.998Z,1027.06
2017-12-21T01:51:13.979Z,1027.03
2017-12-21T01:52:13.959Z,1027.03
2017-12-21T01:53:13.945Z,1027.05
2017-12-21T01:54:13.931Z,1027.01
2017-12-21T01:55:13.899Z,1027.06
2017-12-21T01:56:13.887Z,1027.05
2017-12-21T01:57:13.860Z,1027.06
2017-12-21T01:58:13.841Z,1027.08
2017-12-21T01:59:13.818Z,1027.12
2017-12-21T02:00:13.799Z,1027.09
2017-12-21T02:01:13.778Z,1027.12
2017-12-21T02:02:13.764Z,1027.16
2017-12-21T02:03:13.740Z,1027.16
2017-12-21T02:04:13.724Z,1027.18
2017-12-21T02:05:13.701Z,1027.17
2017-12-21T02:06:13.682Z,1027.16
2017-12-21T02:07:13.661Z,1027.12
2017-12-21T02:08:13.646Z,1027.11
2017-12-21T02:09:13.623Z,1027.15
2017-12-21T02:10:13.615Z,1027.15
2017-12-21T02:11:13.583Z,1027.17
2017-12-21T02:12:13.566Z,1027.16
2017-12-21T02:13:13.543Z,1027.13
2017-12-21T02:14:13.527Z,1027.14
2017-12-21T02:15:13.501Z,1027.11
2017-12-21T02:16:13.487Z,1027.13
2017-12-21T02:17:13.463Z,1027.10
2017-12-21T02:18:13.448Z,1027.06
2017-12-21T02:19:13.423Z,1027.05
2017-12-21T02:20:13.410Z,1027.01
2017-12-21T02:21:13.386Z,1027.00
2017-12-21T02:22:13.369Z,1027.02
2017-12-21T02:23:13.349Z,1026.98
2017-12-21T02:24:13.328Z,1026.96
2017-12-21T02:25:13.306Z,1026.94
2017-12-21T02:26:13.291Z,1026.96
2017-12-21T02:27:13.268Z,1026.92
2017-12-21T02:28:13.246Z,1026.97
2017-12-21T02:29:13.226Z,1027.00
2017-12-21T02:30:13.213Z,1027.03
2017-12-21T02:31:13.188Z,1027.02
2017-12-21T02:32:13.168Z,1026.99
2017-12-21T02:33:13.152Z,1026.97
2017-12-21T02:34:13.128Z,1026.97
2017-12-21T02:35:13.109Z,1026.99
2017-12-21T02:36:13.089Z,1026.99
2017-12-21T02:37:13.074Z,1027.01
2017-12-21T02:38:13.056Z,1026.96
2017-12-21T02:39:13.036Z,1026.97
2017-12-21T02:40:13.011Z,1026.97
2017-12-21T02:41:12.998Z,1027.00
2017-12-21T02:42:12.970Z,1026.99
2017-12-21T02:43:12.958Z,1027.05
2017-12-21T02:44:12.932Z,1027.06
2017-12-21T02:45:12.917Z,1027.07
2017-12-21T02:46:12.893Z,1027.09
2017-12-21T02:47:12.877Z,1027.09
2017-12-21T02:48:12.853Z,1027.09
2017-12-21T02:49:12.837Z,1027.06
2017-12-21T02:50:12.814Z,1027.10
2017-12-21T02:51:12.799Z,1027.06
2017-12-21T02:52:12.775Z,1027.06
2017-12-21T02:53:12.759Z,1027.06
2017-12-21T02:54:12.737Z,1027.04
2017-12-21T02:55:12.720Z,1027.05
2017-12-21T02:56:12.702Z,1027.07
2017-12-21T02:57:12.679Z,1027.10
2017-12-21T02:58:12.657Z,1027.10
2017-12-21T02:59:12.638Z,1027.11
2017-12-21T03:00:12.621Z,1027.13
2017-12-21T03:01:12.596Z,1027.15
2017-12-21T03:02:12.579Z,1027.17
2017-12-21T03:03:12.563Z,1027.16
2017-12-21T03:04:12.536Z,1027.12
2017-12-21T03:05:12.522Z,1027.14
2017-12-21T03:06:12.497Z,1027.15
2017-12-21T03:07:12.481Z,1027.10
2017-12-21T03:08:12.463Z,1027.11
2017-12-21T03:09:12.441Z,1027.05
2017-12-21T03:10:12.426Z,1027.02
2017-12-21T03:11:12.398Z,1027.02
2017-12-21T03:12:12.388Z,1026.99
2017-12-21T03:13:12.362Z,1027.08
2017-12-21T03:14:12.346Z,1027.01
2017-12-21T03:15:12.325Z,1027.03
2017-12-21T03:16:12.308Z,1027.02
2017-12-21T03:17:12.284Z,1027.04
2017-12-21T03:18:12.268Z,1026.99
2017-12-21T03:19:12.243Z,1026.98
2017-12-21T03:20:12.228Z,1026.98
2017-12-21T03:21:12.204Z,1026.98
2017-12-21T03:22:12.188Z,1026.96
2017-12-21T03:23:12.164Z,1026.94
2017-12-21T03:24:12.152Z,1026.94
2017-12-21T03:25:12.128Z,1026.95
2017-12-21T03:26:12.109Z,1026.96
2017-12-21T03:27:12.085Z,1026.95
2017-12-21T03:28:12.072Z,1027.02
2017-12-21T03:29:12.048Z,1027.05
2017-12-21T03:30:12.036Z,1027.00
2017-12-21T03:31:12.010Z,1026.99
2017-12-21T03:32:11.992Z,1026.93
2017-12-21T03:33:11.966Z,1026.91
2017-12-21T03:34:11.952Z,1026.91
2017-12-21T03:35:11.926Z,1026.92
2017-12-21T03:36:11.912Z,1026.87
2017-12-21T03:37:11.891Z,1026.90
2017-12-21T03:38:11.869Z,1026.89
2017-12-21T03:39:11.849Z,1026.86
2017-12-21T03:40:11.834Z,1026.83
2017-12-21T03:41:11.814Z,1026.83
2017-12-21T03:42:11.799Z,1026.84
2017-12-21T03:43:11.771Z,1026.84
2017-12-21T03:44:11.750Z,1026.83
2017-12-21T03:45:11.731Z,1026.81
2017-12-21T03:46:11.714Z,1026.78
2017-12-21T03:47:11.691Z,1026.77
2017-12-21T03:48:11.674Z,1026.71
2017-12-21T03:49:11.656Z,1026.71
2017-12-21T03:50:11.634Z,1026.65
2017-12-21T03:51:11.615Z,1026.66
2017-12-21T03:52:11.593Z,1026.63
2017-12-21T03:53:11.591Z,1026.57
2017-12-21T03:54:11.557Z,1026.57
2017-12-21T03:55:11.535Z,1026.57
2017-12-21T03:56:11.516Z,1026.52
2017-12-21T03:57:11.498Z,1026.53
2017-12-21T03:58:11.476Z,1026.56
2017-12-21T03:59:11.462Z,1026.55
2017-12-21T04:00:11.437Z,1026.58
2017-12-21T04:01:11.420Z,1026.60
2017-12-21T04:02:11.401Z,1026.63
2017-12-21T04:03:11.376Z,1026.57
2017-12-21T04:04:11.356Z,1026.55
2017-12-21T04:05:11.338Z,1026.54
2017-12-21T04:06:11.318Z,1026.58
2017-12-21T04:07:11.298Z,1026.53
2017-12-21T04:08:11.278Z,1026.55
2017-12-21T04:09:11.261Z,1026.60
2017-12-21T04:10:11.239Z,1026.55
2017-12-21T04:11:11.219Z,1026.53
2017-12-21T04:12:11.198Z,1026.52
2017-12-21T04:13:11.186Z,1026.55
2017-12-21T04:14:11.164Z,1026.58
2017-12-21T04:15:11.139Z,1026.54
2017-12-21T04:16:11.119Z,1026.58
2017-12-21T04:17:11.103Z,1026.60
2017-12-21T04:18:11.088Z,1026.57
2017-12-21T04:19:11.066Z,1026.62
2017-12-21T04:20:11.048Z,1026.61
2017-12-21T04:21:11.025Z,1026.61
2017-12-21T04:22:11.004Z,1026.64
2017-12-21T04:23:10.991Z,1026.59
2017-12-21T04:24:10.964Z,1026.60
2017-12-21T04:25:10.948Z,1026.62
2017-12-21T04:26:10.930Z,1026.63
2017-12-21T04:27:10.952Z,1026.63
2017-12-21T04:28:10.888Z,1026.59
2017-12-21T04:29:10.869Z,1026.60
2017-12-21T04:30:10.850Z,1026.62
2017-12-21T04:31:10.826Z,1026.61
2017-12-21T04:32:10.803Z,1026.60
2017-12-21T04:33:10.786Z,1026.62
2017-12-21T04:34:10.773Z,1026.60
2017-12-21T04:35:10.756Z,1026.63
2017-12-21T04:36:10.727Z,1026.63
2017-12-21T04:37:10.707Z,1026.62
2017-12-21T04:38:10.688Z,1026.60
2017-12-21T04:39:10.667Z,1026.61
2017-12-21T04:40:10.650Z,1026.59
2017-12-21T04:41:10.627Z,1026.59
2017-12-21T04:42:10.612Z,1026.59
2017-12-21T04:43:10.600Z,1026.61
2017-12-21T04:44:10.568Z,1026.59
2017-12-21T04:45:10.561Z,1026.58
2017-12-21T04:46:10.529Z,1026.55
2017-12-21T04:47:10.508Z,1026.57
2017-12-21T04:48:10.491Z,1026.56
2017-12-21T04:49:10.469Z,1026.54
2017-12-21T04:50:10.455Z,1026.56
2017-12-21T04:51:10.431Z,1026.56
2017-12-21T04:52:10.414Z,1026.53
2017-12-21T04:53:10.391Z,1026.53
2017-12-21T04:54:10.372Z,1026.55
2017-12-21T04:55:10.353Z,1026.53
2017-12-21T04:56:10.334Z,1026.49
2017-12-21T04:57:10.321Z,1026.48
2017-12-21T04:58:10.296Z,1026.50
2017-12-21T04:59:10.273Z,1026.48
2017-12-21T05:00:10.254Z,1026.52
2017-12-21T05:01:10.235Z,1026.47
2017-12-21T05:02:10.218Z,1026.49
2017-12-21T05:03:10.194Z,1026.51
2017-12-21T05:04:10.175Z,1026.49
2017-12-21T05:05:10.152Z,1026.52
2017-12-21T05:06:10.140Z,1026.55
2017-12-21T05:07:10.116Z,1026.53
2017-12-21T05:08:10.097Z,1026.48
2017-12-21T05:09:10.073Z,1026.50
2017-12-21T05:10:10.065Z,1026.47
2017-12-21T05:11:10.038Z,1026.52
2017-12-21T05:12:10.014Z,1026.51
2017-12-21T05:13:10.005Z,1026.51
2017-12-21T05:14:09.977Z,1026.45
2017-12-21T05:15:09.963Z,1026.50
2017-12-21T05:16:09.938Z,1026.51
2017-12-21T05:17:09.916Z,1026.52
2017-12-21T05:18:09.900Z,1026.50
2017-12-21T05:19:09.891Z,1026.49
2017-12-21T05:20:09.855Z,1026.48
2017-12-21T05:21:09.835Z,1026.47
2017-12-21T05:22:09.816Z,1026.49
2017-12-21T05:23:09.796Z,1026.47
2017-12-21T05:24:09.786Z,1026.47
2017-12-21T05:25:09.760Z,1026.50
2017-12-21T05:26:09.742Z,1026.51
2017-12-21T05:27:09.720Z,1026.51
2017-12-21T05:28:09.699Z,1026.50
2017-12-21T05:29:09.678Z,1026.48
2017-12-21T05:30:09.661Z,1026.49
2017-12-21T05:31:09.637Z,1026.50
2017-12-21T05:32:09.672Z,1026.49
2017-12-21T05:33:09.597Z,1026.50
2017-12-21T05:34:09.582Z,1026.48
2017-12-21T05:35:09.558Z,1026.47
2017-12-21T05:36:09.535Z,1026.46
2017-12-21T05:37:09.522Z,1026.42
2017-12-21T05:38:09.497Z,1026.45
2017-12-21T05:39:09.480Z,1026.45
2017-12-21T05:40:09.460Z,1026.46
2017-12-21T05:41:09.438Z,1026.46
2017-12-21T05:42:09.420Z,1026.45
2017-12-21T05:43:09.399Z,1026.50
2017-12-21T05:44:09.376Z,1026.51
2017-12-21T05:45:09.358Z,1026.48
2017-12-21T05:46:09.340Z,1026.53
2017-12-21T05:47:09.317Z,1026.53
2017-12-21T05:48:09.301Z,1026.57
2017-12-21T05:49:09.280Z,1026.54
2017-12-21T05:50:09.267Z,1026.56
2017-12-21T05:51:09.241Z,1026.59
2017-12-21T05:52:09.223Z,1026.58
2017-12-21T05:53:09.201Z,1026.59
2017-12-21T05:54:09.179Z,1026.60
2017-12-21T05:55:09.165Z,1026.62
2017-12-21T05:56:09.139Z,1026.60
2017-12-21T05:57:09.124Z,1026.63
2017-12-21T05:58:09.101Z,1026.59
2017-12-21T05:59:09.079Z,1026.59
2017-12-21T06:00:09.060Z,1026.56
2017-12-21T06:01:09.044Z,1026.53
2017-12-21T06:02:09.022Z,1026.53
2017-12-21T06:03:09.003Z,1026.56
2017-12-21T06:04:08.981Z,1026.55
2017-12-21T06:05:08.959Z,1026.57
2017-12-21T06:06:08.944Z,1026.59
2017-12-21T06:07:08.924Z,1026.58
2017-12-21T06:08:08.900Z,1026.57
2017-12-21T06:09:08.889Z,1026.58
2017-12-21T06:10:08.861Z,1026.60
2017-12-21T06:11:08.848Z,1026.62
2017-12-21T06:12:08.820Z,1026.59
2017-12-21T06:13:08.809Z,1026.62
2017-12-21T06:14:08.783Z,1026.65
2017-12-21T06:15:08.762Z,1026.66
2017-12-21T06:16:08.744Z,1026.62
2017-12-21T06:17:08.723Z,1026.62
2017-12-21T06:18:08.703Z,1026.62
2017-12-21T06:19:08.687Z,1026.66
2017-12-21T06:20:08.663Z,1026.68
2017-12-21T06:21:08.647Z,1026.65
2017-12-21T06:22:08.624Z,1026.66
2017-12-21T06:23:08.609Z,1026.65
2017-12-21T06:24:08.584Z,1026.66
2017-12-21T06:25:08.569Z,1026.66
2017-12-21T06:26:08.548Z,1026.64
2017-12-21T06:27:08.531Z,1026.68
2017-12-21T06:28:08.504Z,1026.67
2017-12-21T06:29:08.488Z,1026.70
2017-12-21T06:30:08.472Z,1026.67
2017-12-21T06:31:08.450Z,1026.73
2017-12-21T06:32:08.426Z,1026.71
2017-12-21T06:33:08.408Z,1026.71
2017-12-21T06:34:08.385Z,1026.68
2017-12-21T06:35:08.368Z,1026.65
2017-12-21T06:36:08.347Z,1026.68
2017-12-21T06:37:08.328Z,1026.65
2017-12-21T06:38:08.309Z,1026.65
2017-12-21T06:39:08.286Z,1026.60
2017-12-21T06:40:08.267Z,1026.62
2017-12-21T06:41:08.247Z,1026.64
2017-12-21T06:42:08.229Z,1026.60
2017-12-21T06:43:08.209Z,1026.64
2017-12-21T06:44:08.187Z,1026.59
2017-12-21T06:45:08.167Z,1026.63
2017-12-21T06:46:08.145Z,1026.65
2017-12-21T06:47:08.169Z,1026.68
2017-12-21T06:48:08.109Z,1026.69
2017-12-21T06:49:08.087Z,1026.69
2017-12-21T06:50:08.069Z,1026.72
2017-12-21T06:51:08.052Z,1026.72
2017-12-21T06:52:08.029Z,1026.71
2017-12-21T06:53:08.012Z,1026.76
2017-12-21T06:54:07.989Z,1026.72
2017-12-21T06:55:07.970Z,1026.79
2017-12-21T06:56:07.951Z,1026.79
2017-12-21T06:57:07.929Z,1026.78
2017-12-21T06:58:07.909Z,1026.78
2017-12-21T06:59:07.887Z,1026.78
2017-12-21T07:00:07.869Z,1026.79
2017-12-21T07:01:07.861Z,1026.79
2017-12-21T07:02:07.831Z,1026.79
2017-12-21T07:03:07.817Z,1026.78
2017-12-21T07:04:07.795Z,1026.75
2017-12-21T07:05:07.779Z,1026.72
2017-12-21T07:06:07.751Z,1026.73
2017-12-21T07:07:07.733Z,1026.72
2017-12-21T07:08:07.713Z,1026.71
2017-12-21T07:09:07.692Z,1026.71
2017-12-21T07:10:07.707Z,1026.67
2017-12-21T07:11:07.653Z,1026.68
2017-12-21T07:12:07.633Z,1026.73
2017-12-21T07:13:07.611Z,1026.77
2017-12-21T07:14:07.597Z,1026.76
2017-12-21T07:15:07.574Z,1026.76
2017-12-21T07:16:07.560Z,1026.76
2017-12-21T07:17:07.531Z,1026.72
2017-12-21T07:18:07.515Z,1026.76
2017-12-21T07:19:07.501Z,1026.74
2017-12-21T07:20:07.476Z,1026.73
2017-12-21T07:21:07.458Z,1026.75
2017-12-21T07:22:07.436Z,1026.78
2017-12-21T07:23:07.418Z,1026.79
2017-12-21T07:24:07.397Z,1026.77
2017-12-21T07:25:07.378Z,1026.78
2017-12-21T07:26:07.353Z,1026.81
2017-12-21T07:27:07.337Z,1026.82
2017-12-21T07:28:07.317Z,1026.81
2017-12-21T07:29:07.297Z,1026.79
2017-12-21T07:30:07.277Z,1026.86
2017-12-21T07:31:07.265Z,1026.82
2017-12-21T07:32:07.242Z,1026.85
2017-12-21T07:33:07.217Z,1026.84
2017-12-21T07:34:07.199Z,1026.86
2017-12-21T07:35:07.177Z,1026.83
2017-12-21T07:36:07.163Z,1026.87
2017-12-21T07:37:07.142Z,1026.87
2017-12-21T07:38:07.121Z,1026.89
2017-12-21T07:39:07.100Z,1026.87
2017-12-21T07:40:07.084Z,1026.87
2017-12-21T07:41:07.061Z,1026.88
2017-12-21T07:42:07.037Z,1026.92
2017-12-21T07:43:07.025Z,1026.88
2017-12-21T07:44:06.998Z,1026.89
2017-12-21T07:45:06.979Z,1026.88
2017-12-21T07:46:06.961Z,1026.89
2017-12-21T07:47:06.937Z,1026.91
2017-12-21T07:48:06.973Z,1026.94
2017-12-21T07:49:06.926Z,1026.94
2017-12-21T07:50:06.879Z,1026.95
2017-12-21T07:51:06.865Z,1026.94
2017-12-21T07:52:06.850Z,1026.97
2017-12-21T07:53:06.828Z,1026.96
2017-12-21T07:54:06.803Z,1026.96
2017-12-21T07:55:06.787Z,1026.94
2017-12-21T07:56:06.764Z,1026.98
2017-12-21T07:57:06.750Z,1026.94
2017-12-21T07:58:06.723Z,1026.93
2017-12-21T07:59:06.701Z,1026.90
2017-12-21T08:00:06.683Z,1026.89
2017-12-21T08:01:06.679Z,1026.92
2017-12-21T08:02:06.646Z,1026.86
2017-12-21T08:03:06.628Z,1026.87
2017-12-21T08:04:06.609Z,1026.87
2017-12-21T08:05:06.583Z,1026.83
2017-12-21T08:06:06.568Z,1026.83
2017-12-21T08:07:06.545Z,1026.83
2017-12-21T08:08:06.525Z,1026.77
2017-12-21T08:09:06.512Z,1026.76
2017-12-21T08:10:06.489Z,1026.71
2017-12-21T08:11:06.478Z,1026.71
2017-12-21T08:12:06.450Z,1026.66
2017-12-21T08:13:06.469Z,1026.67
2017-12-21T08:14:06.406Z,1026.67
2017-12-21T08:15:06.384Z,1026.69
2017-12-21T08:16:06.367Z,1026.81
2017-12-21T08:17:06.349Z,1026.82
2017-12-21T08:18:06.326Z,1026.83
2017-12-21T08:19:06.308Z,1026.85
2017-12-21T08:20:06.294Z,1026.83
2017-12-21T08:21:06.267Z,1026.85
2017-12-21T08:22:06.248Z,1026.91
2017-12-21T08:23:06.229Z,1026.91
2017-12-21T08:24:06.210Z,1026.91
2017-12-21T08:25:06.187Z,1026.91
2017-12-21T08:26:06.168Z,1026.91
2017-12-21T08:27:06.151Z,1026.87
2017-12-21T08:28:06.131Z,1026.87
2017-12-21T08:29:06.109Z,1026.84
2017-12-21T08:30:06.095Z,1026.85
2017-12-21T08:31:06.076Z,1026.84
2017-12-21T08:32:06.050Z,1026.79
2017-12-21T08:33:06.035Z,1026.83
2017-12-21T08:34:06.010Z,1026.89
2017-12-21T08:35:05.989Z,1026.91
2017-12-21T08:36:05.971Z,1026.91
2017-12-21T08:37:05.953Z,1027.01
2017-12-21T08:38:05.939Z,1027.00
2017-12-21T08:39:05.913Z,1027.04
2017-12-21T08:40:05.898Z,1027.06
2017-12-21T08:41:05.875Z,1027.12
2017-12-21T08:42:05.859Z,1027.12
2017-12-21T08:43:05.837Z,1027.11
2017-12-21T08:44:05.818Z,1027.13
2017-12-21T08:45:05.798Z,1027.12
2017-12-21T08:46:05.779Z,1027.17
2017-12-21T08:47:05.757Z,1027.16
2017-12-21T08:48:05.738Z,1027.21
2017-12-21T08:49:05.719Z,1027.21
2017-12-21T08:50:05.719Z,1027.19
2017-12-21T08:51:05.678Z,1027.12
2017-12-21T08:52:05.658Z,1027.14
2017-12-21T08:53:05.648Z,1027.12
2017-12-21T08:54:05.620Z,1027.14
2017-12-21T08:55:05.598Z,1027.12
2017-12-21T08:56:05.578Z,1027.13
2017-12-21T08:57:05.559Z,1027.16
2017-12-21T08:58:05.543Z,1027.13
2017-12-21T08:59:05.517Z,1027.07
2017-12-21T09:00:05.505Z,1027.06
2017-12-21T09:01:05.490Z,1027.09
2017-12-21T09:02:05.466Z,1027.08
2017-12-21T09:03:05.441Z,1027.06
2017-12-21T09:04:05.419Z,1027.02
2017-12-21T09:05:05.403Z,1027.04
2017-12-21T09:06:05.389Z,1027.04
2017-12-21T09:07:05.365Z,1027.02
2017-12-21T09:08:05.343Z,1027.00
2017-12-21T09:09:05.324Z,1027.02
2017-12-21T09:10:05.303Z,1026.99
2017-12-21T09:11:05.282Z,1026.96
2017-12-21T09:12:05.269Z,1026.96
2017-12-21T09:13:05.250Z,1026.96
2017-12-21T09:14:05.223Z,1026.90
2017-12-21T09:15:05.202Z,1026.93
2017-12-21T09:16:05.185Z,1026.93
2017-12-21T09:17:05.164Z,1026.95
2017-12-21T09:18:05.147Z,1026.95
2017-12-21T09:19:05.123Z,1026.94
2017-12-21T09:20:05.108Z,1026.94
2017-12-21T09:21:05.096Z,1026.99
2017-12-21T09:22:05.066Z,1026.96
2017-12-21T09:23:05.051Z,1026.96
2017-12-21T09:24:05.031Z,1027.00
2017-12-21T09:25:05.006Z,1027.04
2017-12-21T09:26:04.990Z,1027.02
2017-12-21T09:27:04.965Z,1026.98
2017-12-21T09:28:04.946Z,1026.97
2017-12-21T09:29:04.927Z,1026.95
2017-12-21T09:30:04.907Z,1026.94
2017-12-21T09:31:04.902Z,1026.96
2017-12-21T09:32:04.876Z,1026.91
2017-12-21T09:33:04.856Z,1026.88
2017-12-21T09:34:04.827Z,1026.82
2017-12-21T09:35:04.809Z,1026.89
2017-12-21T09:36:04.787Z,1026.88
2017-12-21T09:37:04.766Z,1026.93
2017-12-21T09:38:04.800Z,1026.91
2017-12-21T09:39:04.730Z,1026.89
2017-12-21T09:40:04.711Z,1026.84
2017-12-21T09:41:04.688Z,1026.90
2017-12-21T09:42:04.726Z,1026.87
2017-12-21T09:43:04.647Z,1026.85
2017-12-21T09:44:04.631Z,1026.87
2017-12-21T09:45:04.620Z,1026.90
2017-12-21T09:46:04.587Z,1026.89
2017-12-21T09:47:04.582Z,1026.93
2017-12-21T09:48:04.552Z,1026.95
2017-12-21T09:49:04.546Z,1026.96
2017-12-21T09:50:04.513Z,1027.00
2017-12-21T09:51:04.499Z,1027.07
2017-12-21T09:52:04.475Z,1027.08
2017-12-21T09:53:04.454Z,1027.11
2017-12-21T09:54:04.440Z,1027.15
2017-12-21T09:55:04.419Z,1027.15
2017-12-21T09:56:04.393Z,1027.12
2017-12-21T09:57:04.380Z,1027.17
2017-12-21T09:58:04.353Z,1027.17
2017-12-21T09:59:04.336Z,1027.20
2017-12-21T10:00:04.320Z,1027.27
2017-12-21T10:01:04.292Z,1027.27
2017-12-21T10:02:04.279Z,1027.22
2017-12-21T10:03:04.266Z,1027.30
2017-12-21T10:04:04.237Z,1027.27
2017-12-21T10:05:04.215Z,1027.35
2017-12-21T10:06:04.199Z,1027.23
2017-12-21T10:07:04.173Z,1027.24
2017-12-21T10:08:04.158Z,1027.24
2017-12-21T10:09:04.138Z,1027.28
2017-12-21T10:10:04.117Z,1027.25
2017-12-21T10:11:04.098Z,1027.29
2017-12-21T10:12:04.077Z,1027.25
2017-12-21T10:13:04.056Z,1027.25
2017-12-21T10:14:04.040Z,1027.20
2017-12-21T10:15:04.018Z,1027.17
2017-12-21T10:16:03.998Z,1027.18
2017-12-21T10:17:03.978Z,1027.24
2017-12-21T10:18:03.958Z,1027.24
2017-12-21T10:19:03.938Z,1027.21
2017-12-21T10:20:03.923Z,1027.21
2017-12-21T10:21:03.898Z,1027.17
2017-12-21T10:22:03.879Z,1027.16
2017-12-21T10:23:03.857Z,1027.11
2017-12-21T10:24:03.837Z,1027.14
2017-12-21T10:25:03.818Z,1027.14
2017-12-21T10:26:03.798Z,1027.12
2017-12-21T10:27:03.776Z,1027.14
2017-12-21T10:28:03.758Z,1027.10
2017-12-21T10:29:03.743Z,1027.11
2017-12-21T10:30:03.719Z,1027.10
2017-12-21T10:31:03.696Z,1027.08
2017-12-21T10:32:03.685Z,1027.05
2017-12-21T10:33:03.670Z,1027.10
2017-12-21T10:34:03.639Z,1027.13
2017-12-21T10:35:03.617Z,1027.16
2017-12-21T10:36:03.613Z,1027.14
2017-12-21T10:37:03.582Z,1027.18
2017-12-21T10:38:03.571Z,1027.15
2017-12-21T10:39:03.542Z,1027.17
2017-12-21T10:40:03.551Z,1027.20
2017-12-21T10:41:03.506Z,1027.20
2017-12-21T10:42:03.483Z,1027.23
2017-12-21T10:43:03.466Z,1027.19
2017-12-21T10:44:03.445Z,1027.19
2017-12-21T10:45:03.422Z,1027.21
2017-12-21T10:46:03.405Z,1027.19
2017-12-21T10:47:03.391Z,1027.21
2017-12-21T10:48:03.364Z,1027.19
2017-12-21T10:49:03.350Z,1027.22
2017-12-21T10:50:03.327Z,1027.22
2017-12-21T10:51:03.309Z,1027.24
2017-12-21T10:52:03.286Z,1027.22
2017-12-21T10:53:03.270Z,1027.20
2017-12-21T10:54:03.251Z,1027.17
2017-12-21T10:55:03.232Z,1027.17
2017-12-21T10:56:03.209Z,1027.17
2017-12-21T10:57:03.189Z,1027.18
2017-12-21T10:58:03.169Z,1027.22
2017-12-21T10:59:03.150Z,1027.20
2017-12-21T11:00:03.129Z,1027.22
2017-12-21T11:01:03.108Z,1027.23
2017-12-21T11:02:03.090Z,1027.23
2017-12-21T11:03:03.067Z,1027.25
2017-12-21T11:04:03.055Z,1027.28
2017-12-21T11:05:03.033Z,1027.20
2017-12-21T11:06:03.017Z,1027.22
2017-12-21T11:07:02.997Z,1027.21
2017-12-21T11:08:02.975Z,1027.22
2017-12-21T11:09:02.950Z,1027.20
2017-12-21T11:10:02.956Z,1027.17
2017-12-21T11:11:02.913Z,1027.18
2017-12-21T11:12:02.889Z,1027.21
2017-12-21T11:13:02.871Z,1027.19
2017-12-21T11:14:02.860Z,1027.20
2017-12-21T11:15:02.834Z,1027.19
2017-12-21T11:16:02.862Z,1027.22
2017-12-21T11:17:02.794Z,1027.20
2017-12-21T11:18:02.782Z,1027.17
2017-12-21T11:19:02.755Z,1027.20
2017-12-21T11:20:02.738Z,1027.20
2017-12-21T11:21:02.719Z,1027.16
2017-12-21T11:22:02.700Z,1027.14
2017-12-21T11:23:02.675Z,1027.15
2017-12-21T11:24:02.659Z,1027.12
2017-12-21T11:25:02.637Z,1027.10
2017-12-21T11:26:02.618Z,1027.06
2017-12-21T11:27:02.601Z,1027.09
2017-12-21T11:28:02.583Z,1027.01
2017-12-21T11:29:02.561Z,1027.01
2017-12-21T11:30:02.537Z,1026.98
2017-12-21T11:31:02.519Z,1026.99
2017-12-21T11:32:02.505Z,1026.95
2017-12-21T11:33:02.486Z,1026.93
2017-12-21T11:34:02.461Z,1026.94
2017-12-21T11:35:02.443Z,1026.91
2017-12-21T11:36:02.420Z,1026.88
2017-12-21T11:37:02.401Z,1026.87
2017-12-21T11:38:02.386Z,1026.85
2017-12-21T11:39:02.370Z,1026.83
2017-12-21T11:40:02.347Z,1026.84
2017-12-21T11:41:02.332Z,1026.83
2017-12-21T11:42:02.309Z,1026.81
2017-12-21T11:43:02.287Z,1026.86
2017-12-21T11:44:02.264Z,1026.83
2017-12-21T11:45:02.250Z,1026.82
2017-12-21T11:46:02.233Z,1026.83
2017-12-21T11:47:02.209Z,1026.79
2017-12-21T11:48:02.188Z,1026.82
2017-12-21T11:49:02.170Z,1026.85
2017-12-21T11:50:02.157Z,1026.81
2017-12-21T11:51:02.130Z,1026.82
2017-12-21T11:52:02.117Z,1026.85
2017-12-21T11:53:02.105Z,1026.86
2017-12-21T11:54:02.076Z,1026.85
2017-12-21T11:55:02.056Z,1026.85
2017-12-21T11:56:02.035Z,1026.85
2017-12-21T11:57:02.020Z,1026.79
2017-12-21T11:58:01.995Z,1026.80
2017-12-21T11:59:02.052Z,1026.81
2017-12-21T12:00:01.957Z,1026.81
2017-12-21T12:01:01.938Z,1026.77
2017-12-21T12:02:01.935Z,1026.84
2017-12-21T12:03:01.905Z,1026.80
2017-12-21T12:04:01.878Z,1026.80
2017-12-21T12:05:01.859Z,1026.78